Time;durP1;ratioP1;P1;durP2;ratioP2;P2;SDS_P1;SDS_P2;PMS_P1;PMS_P2;Temp;Humidity;BMP_temperature;BMP_pressure;BME280_temperature;BME280_humidity;BME280_pressure;Samples;Min_cycle;Max_cycle;Signal;HPM_P1;HPM_P2
2022/04/14 00:01:17;;;;;;;4.22;3.28;;;11.30;58.70;;;;;;5054595;28;20037;-63
2022/04/14 00:03:43;;;;;;;5.75;3.17;;;11.30;58.70;;;;;;5053626;28;20293;-64
2022/04/14 00:06:08;;;;;;;6.57;3.22;;;11.30;58.70;;;;;;5057107;28;20029;-63
2022/04/14 00:08:34;;;;;;;4.53;3.17;;;11.20;58.70;;;;;;5053895;28;20032;-63
2022/04/14 00:10:59;;;;;;;6.50;3.50;;;11.20;58.90;;;;;;5054960;28;20044;-63
2022/04/14 00:13:25;;;;;;;5.18;3.15;;;11.10;59.00;;;;;;5057076;28;20033;-64
2022/04/14 00:15:51;;;;;;;6.10;3.33;;;11.10;59.10;;;;;;5051983;28;20123;-63
2022/04/14 00:18:17;;;;;;;5.85;3.60;;;11.00;59.20;;;;;;5055780;28;20053;-63
2022/04/14 00:20:42;;;;;;;6.32;3.50;;;11.00;59.20;;;;;;5055481;28;20509;-64
2022/04/14 00:23:08;;;;;;;8.07;3.50;;;11.00;59.40;;;;;;5055049;28;20032;-64
2022/04/14 00:25:34;;;;;;;4.22;3.10;;;11.00;59.50;;;;;;5053604;28;20048;-63
2022/04/14 00:28:00;;;;;;;4.10;2.95;;;11.00;59.40;;;;;;5056868;28;20029;-63
2022/04/14 00:30:26;;;;;;;6.78;3.90;;;11.00;59.50;;;;;;5055222;28;20033;-64
2022/04/14 00:32:51;;;;;;;4.28;3.47;;;11.00;59.70;;;;;;5056555;28;20517;-63
2022/04/14 00:35:17;;;;;;;5.75;3.90;;;11.00;59.70;;;;;;5056502;28;20035;-64
2022/04/14 00:37:43;;;;;;;7.80;4.15;;;10.90;59.80;;;;;;5055602;28;20112;-64
2022/04/14 00:40:09;;;;;;;5.75;4.43;;;10.90;59.90;;;;;;5053212;28;20447;-64
2022/04/14 00:42:35;;;;;;;5.70;4.22;;;10.90;59.90;;;;;;5054998;28;20306;-63
2022/04/14 00:45:00;;;;;;;6.80;4.93;;;10.90;60.00;;;;;;5054081;28;20040;-64
2022/04/14 00:47:26;;;;;;;6.43;4.22;;;10.80;60.30;;;;;;5054548;28;20045;-64
2022/04/14 00:49:52;;;;;;;5.75;4.47;;;10.80;60.40;;;;;;5053288;28;20887;-64
2022/04/14 00:52:22;;;;;;;5.32;4.00;;;10.80;60.60;;;;;;5055996;28;20116;-64
2022/04/14 00:54:47;;;;;;;9.35;4.38;;;10.70;61.10;;;;;;5051331;28;20043;-65
2022/04/14 00:57:14;;;;;;;7.80;4.50;;;10.70;61.00;;;;;;5055134;28;20033;-63
2022/04/14 00:59:41;;;;;;;6.00;4.03;;;10.70;61.20;;;;;;5052429;28;20122;-63
2022/04/14 01:02:07;;;;;;;6.07;3.85;;;10.60;61.20;;;;;;5054542;28;20036;-63
2022/04/14 01:04:33;;;;;;;4.78;3.70;;;10.70;61.20;;;;;;5054679;28;20040;-64
2022/04/14 01:07:00;;;;;;;5.40;4.25;;;10.70;61.30;;;;;;5053381;28;20039;-64
2022/04/14 01:09:26;;;;;;;5.28;3.83;;;10.60;61.30;;;;;;5054207;28;20075;-63
2022/04/14 01:11:56;;;;;;;4.82;3.50;;;10.60;61.40;;;;;;5050502;28;20224;-64
2022/04/14 01:14:24;;;;;;;7.85;3.97;;;10.70;61.50;;;;;;5055577;28;20158;-64
2022/04/14 01:16:49;;;;;;;4.63;3.75;;;10.70;61.40;;;;;;5055522;28;20032;-64
2022/04/14 01:19:15;;;;;;;4.82;3.83;;;10.70;61.20;;;;;;5054974;28;20502;-64
2022/04/14 01:21:46;;;;;;;5.68;3.70;;;10.70;61.30;;;;;;5056549;28;20108;-63
2022/04/14 01:24:14;;;;;;;7.97;4.03;;;10.70;61.90;;;;;;5059324;28;20079;-63
2022/04/14 01:26:40;;;;;;;5.82;4.18;;;10.70;61.60;;;;;;5060043;28;20063;-63
2022/04/14 01:29:06;;;;;;;5.72;3.83;;;10.70;61.70;;;;;;5060726;28;20436;-63
2022/04/14 01:31:32;;;;;;;6.53;4.20;;;10.70;61.60;;;;;;5059331;28;20505;-63
2022/04/14 01:33:57;;;;;;;5.70;4.30;;;10.60;62.50;;;;;;5060245;28;20036;-64
2022/04/14 01:36:23;;;;;;;8.48;4.30;;;10.70;61.70;;;;;;5060414;28;20306;-63
2022/04/14 01:38:49;;;;;;;6.32;4.30;;;10.70;62.00;;;;;;5060847;28;20044;-63
2022/04/14 01:41:14;;;;;;;5.03;4.18;;;10.60;62.10;;;;;;5061072;28;20024;-63
2022/04/14 01:43:40;;;;;;;10.43;5.03;;;10.70;62.00;;;;;;5059347;28;20427;-64
2022/04/14 01:46:09;;;;;;;7.32;5.07;;;10.70;62.00;;;;;;5060656;28;20037;-63
2022/04/14 01:48:38;;;;;;;8.02;5.13;;;10.60;62.20;;;;;;5058704;28;20440;-63
2022/04/14 01:51:04;;;;;;;9.02;5.30;;;10.60;62.40;;;;;;5059219;28;20258;-63
2022/04/14 01:53:30;;;;;;;7.70;4.80;;;10.60;62.50;;;;;;5059148;28;20108;-63
2022/04/14 01:55:55;;;;;;;10.50;4.85;;;10.60;62.90;;;;;;5057664;28;20140;-64
2022/04/14 01:58:21;;;;;;;6.53;4.72;;;10.60;62.90;;;;;;5060618;28;20041;-63
2022/04/14 02:00:46;;;;;;;7.80;5.18;;;10.60;62.70;;;;;;5056528;28;20489;-63
2022/04/14 02:03:12;;;;;;;8.70;4.85;;;10.60;62.50;;;;;;5057746;28;20037;-64
2022/04/14 02:05:38;;;;;;;7.25;4.72;;;10.60;62.60;;;;;;5055717;28;20032;-63
2022/04/14 02:08:04;;;;;;;11.05;5.13;;;10.60;62.60;;;;;;5057128;28;20083;-62
2022/04/14 02:10:29;;;;;;;8.05;5.30;;;10.70;62.70;;;;;;5058391;28;20033;-63
2022/04/14 02:12:55;;;;;;;7.55;5.45;;;10.70;62.90;;;;;;5055734;28;20029;-63
2022/04/14 02:15:21;;;;;;;6.50;5.10;;;10.70;62.90;;;;;;5056680;28;20028;-63
2022/04/14 02:17:46;;;;;;;10.98;5.65;;;10.80;63.10;;;;;;5057954;28;20517;-63
2022/04/14 02:20:12;;;;;;;6.80;5.32;;;10.80;63.10;;;;;;5058899;28;20025;-64
2022/04/14 02:22:39;;;;;;;7.80;5.43;;;10.80;63.10;;;;;;5059177;28;20469;-63
2022/04/14 02:25:06;;;;;;;7.32;5.63;;;10.80;63.30;;;;;;5054504;28;20047;-64
2022/04/14 02:27:31;;;;;;;8.77;5.57;;;10.90;63.30;;;;;;5056853;28;20182;-63
2022/04/14 02:29:57;;;;;;;13.05;5.40;;;10.80;63.30;;;;;;5057332;28;20501;-64
2022/04/14 02:32:22;;;;;;;7.70;5.43;;;10.90;63.30;;;;;;5057983;28;20240;-62
2022/04/14 02:34:48;;;;;;;8.77;5.65;;;10.80;63.10;;;;;;5056500;28;20036;-64
2022/04/14 02:37:13;;;;;;;7.93;5.20;;;10.80;63.30;;;;;;5056387;28;20079;-64
2022/04/14 02:39:39;;;;;;;7.30;5.22;;;10.80;63.30;;;;;;5058919;28;20104;-63
2022/04/14 02:42:05;;;;;;;6.80;5.07;;;10.80;63.30;;;;;;5057182;28;20044;-63
2022/04/14 02:44:31;;;;;;;6.75;4.38;;;10.80;63.30;;;;;;5054930;28;20135;-63
2022/04/14 02:46:57;;;;;;;6.97;4.25;;;10.80;63.20;;;;;;5055932;28;20111;-64
2022/04/14 02:49:23;;;;;;;6.85;4.07;;;10.70;63.10;;;;;;5057775;28;20106;-63
2022/04/14 02:51:49;;;;;;;6.35;4.40;;;10.70;63.80;;;;;;5057054;28;20040;-63
2022/04/14 02:54:15;;;;;;;5.60;3.95;;;10.70;62.80;;;;;;5057271;28;20033;-63
2022/04/14 02:56:40;;;;;;;5.95;4.05;;;10.70;62.80;;;;;;5056372;28;20101;-62
2022/04/14 02:59:06;;;;;;;7.07;4.70;;;10.60;62.90;;;;;;5054931;28;20545;-64
2022/04/14 03:01:31;;;;;;;7.45;4.88;;;10.60;63.10;;;;;;5058544;28;20383;-64
2022/04/14 03:03:57;;;;;;;7.07;4.30;;;10.60;63.20;;;;;;5054491;28;20067;-64
2022/04/14 03:06:23;;;;;;;8.73;4.72;;;10.50;63.30;;;;;;5057830;28;20423;-64
2022/04/14 03:08:48;;;;;;;6.75;4.18;;;10.40;63.30;;;;;;5056281;28;20053;-63
2022/04/14 03:11:14;;;;;;;7.35;4.57;;;10.40;63.40;;;;;;5055356;28;20119;-63
2022/04/14 03:13:40;;;;;;;5.55;4.18;;;10.30;63.60;;;;;;5054492;28;20512;-64
2022/04/14 03:16:06;;;;;;;5.82;4.18;;;10.20;64.70;;;;;;5058790;28;20044;-64
2022/04/14 03:18:33;;;;;;;6.75;4.75;;;10.20;64.00;;;;;;5057511;28;20531;-60
2022/04/14 03:20:58;;;;;;;6.78;5.18;;;10.10;64.00;;;;;;5055857;28;20516;-64
2022/04/14 03:23:24;;;;;;;5.40;4.65;;;10.20;64.30;;;;;;5055612;28;20185;-63
2022/04/14 03:25:50;;;;;;;8.98;4.65;;;10.10;64.50;;;;;;5055027;28;20325;-63
2022/04/14 03:28:16;;;;;;;7.95;4.57;;;10.10;64.60;;;;;;5055983;28;20413;-63
2022/04/14 03:30:41;;;;;;;7.95;4.38;;;10.00;64.70;;;;;;5055900;28;20040;-64
2022/04/14 03:33:07;;;;;;;5.43;4.35;;;10.00;64.60;;;;;;5056058;28;20320;-64
2022/04/14 03:35:32;;;;;;;7.75;4.43;;;10.00;64.60;;;;;;5054588;28;20044;-63
2022/04/14 03:37:58;;;;;;;6.32;4.35;;;9.90;64.60;;;;;;5055470;28;20041;-63
2022/04/14 03:40:24;;;;;;;6.45;4.63;;;10.00;64.90;;;;;;5055714;28;20020;-64
2022/04/14 03:42:49;;;;;;;8.75;4.53;;;9.90;64.80;;;;;;5056024;28;20437;-64
2022/04/14 03:45:15;;;;;;;5.97;4.38;;;9.90;64.80;;;;;;5055992;28;20036;-64
2022/04/14 03:47:41;;;;;;;7.00;4.43;;;9.80;64.70;;;;;;5057318;28;20124;-63
2022/04/14 03:50:07;;;;;;;6.75;4.65;;;9.80;64.70;;;;;;5054263;28;20227;-63
2022/04/14 03:52:32;;;;;;;6.53;4.57;;;9.80;64.90;;;;;;5056194;28;20041;-63
2022/04/14 03:54:58;;;;;;;6.32;4.88;;;9.80;65.10;;;;;;5054429;28;20045;-64
2022/04/14 03:57:25;;;;;;;5.70;4.55;;;9.80;65.20;;;;;;5055979;28;20029;-63
2022/04/14 03:59:50;;;;;;;7.30;5.18;;;9.80;65.50;;;;;;5056563;28;20036;-63
2022/04/14 04:02:16;;;;;;;7.72;5.10;;;9.70;65.50;;;;;;5056376;28;20531;-63
2022/04/14 04:04:42;;;;;;;6.72;4.82;;;9.70;65.50;;;;;;5055616;28;20037;-63
2022/04/14 04:07:08;;;;;;;8.93;5.07;;;9.70;65.50;;;;;;5054742;28;20450;-63
2022/04/14 04:09:33;;;;;;;6.60;4.63;;;9.70;65.70;;;;;;5055312;28;20028;-63
2022/04/14 04:12:00;;;;;;;8.48;5.05;;;9.70;65.90;;;;;;5053755;28;20074;-63
2022/04/14 04:14:26;;;;;;;7.43;5.35;;;9.60;65.90;;;;;;5053339;28;20055;-63
2022/04/14 04:16:51;;;;;;;8.20;5.15;;;9.50;65.70;;;;;;5055145;28;20517;-64
2022/04/14 04:19:17;;;;;;;7.30;5.15;;;9.50;65.90;;;;;;5058751;28;20029;-63
2022/04/14 04:21:42;;;;;;;6.85;5.10;;;9.50;66.00;;;;;;5056225;28;20234;-63
2022/04/14 04:24:09;;;;;;;6.65;5.30;;;9.50;66.30;;;;;;5054483;28;20567;-64
2022/04/14 04:26:34;;;;;;;8.85;5.93;;;9.50;66.60;;;;;;5055088;28;20063;-63
2022/04/14 04:29:00;;;;;;;10.70;5.43;;;9.40;66.60;;;;;;5060262;28;20075;-62
2022/04/14 04:31:26;;;;;;;8.05;5.45;;;9.40;66.70;;;;;;5053697;28;20025;-64
2022/04/14 04:33:53;;;;;;;8.48;5.57;;;9.40;66.70;;;;;;5052832;28;20098;-63
2022/04/14 04:36:18;;;;;;;7.55;5.13;;;9.40;66.90;;;;;;5056753;28;20051;-63
2022/04/14 04:38:44;;;;;;;10.85;5.50;;;9.40;66.80;;;;;;5052376;28;20037;-63
2022/04/14 04:41:10;;;;;;;8.73;5.25;;;9.30;66.60;;;;;;5054534;28;20029;-63
2022/04/14 04:43:35;;;;;;;8.57;5.50;;;9.40;66.00;;;;;;5058184;28;20037;-62
2022/04/14 04:46:02;;;;;;;8.02;5.45;;;9.30;66.90;;;;;;5059898;28;20143;-64
2022/04/14 04:48:27;;;;;;;9.07;5.80;;;9.30;66.90;;;;;;5056461;28;20120;-63
2022/04/14 04:50:53;;;;;;;11.35;6.18;;;9.30;67.00;;;;;;5056282;28;20113;-63
2022/04/14 04:53:19;;;;;;;8.43;5.78;;;9.30;67.20;;;;;;5054613;28;20028;-66
2022/04/14 04:55:45;;;;;;;9.30;5.78;;;9.30;67.20;;;;;;5056028;28;20037;-66
2022/04/14 04:58:10;;;;;;;8.82;6.15;;;9.30;67.30;;;;;;5064382;28;20036;-66
2022/04/14 05:00:36;;;;;;;9.00;6.32;;;9.40;67.40;;;;;;5066030;28;20081;-65
2022/04/14 05:03:10;;;;;;;11.45;6.50;;;9.40;67.60;;;;;;5064731;28;20051;-66
2022/04/14 05:05:37;;;;;;;9.47;6.43;;;9.40;68.00;;;;;;5060504;28;20650;-66
2022/04/14 05:08:04;;;;;;;12.60;6.40;;;9.40;67.80;;;;;;5062867;28;20625;-65
2022/04/14 05:10:29;;;;;;;11.95;6.78;;;9.40;67.70;;;;;;5059226;28;20124;-66
2022/04/14 05:12:55;;;;;;;10.07;6.80;;;9.40;67.90;;;;;;5058655;28;20104;-66
2022/04/14 05:15:21;;;;;;;15.70;7.18;;;9.40;68.00;;;;;;5058602;28;20066;-66
2022/04/14 05:17:47;;;;;;;10.82;6.38;;;9.50;68.10;;;;;;5065585;28;20028;-66
2022/04/14 05:20:13;;;;;;;10.43;6.82;;;9.50;68.20;;;;;;5059152;28;20033;-65
2022/04/14 05:22:38;;;;;;;17.10;6.53;;;9.50;68.30;;;;;;5059714;28;20027;-66
2022/04/14 05:25:04;;;;;;;18.42;11.05;;;9.50;68.30;;;;;;5058725;28;20059;-65
2022/04/14 05:27:30;;;;;;;22.75;11.50;;;9.50;68.00;;;;;;5058076;28;20035;-65
2022/04/14 05:29:56;;;;;;;24.13;9.35;;;9.60;68.00;;;;;;5060251;28;20033;-66
2022/04/14 05:32:21;;;;;;;26.73;9.60;;;9.60;67.90;;;;;;5057436;28;20045;-66
2022/04/14 05:34:47;;;;;;;19.10;9.23;;;9.60;68.70;;;;;;5059682;28;20041;-66
2022/04/14 05:37:12;;;;;;;20.17;9.10;;;9.70;67.90;;;;;;5061965;28;20071;-66
2022/04/14 05:39:38;;;;;;;22.77;8.57;;;9.70;68.00;;;;;;5058852;28;20029;-66
2022/04/14 05:42:04;;;;;;;18.17;9.27;;;9.80;68.00;;;;;;5059172;28;20036;-66
2022/04/14 05:44:30;;;;;;;13.10;8.05;;;9.80;68.20;;;;;;5058766;28;20585;-66
2022/04/14 05:46:55;;;;;;;14.68;8.13;;;9.90;68.60;;;;;;5059370;28;20578;-66
2022/04/14 05:49:21;;;;;;;12.43;8.07;;;10.00;68.80;;;;;;5058833;28;20136;-66
2022/04/14 05:51:47;;;;;;;15.15;7.55;;;10.00;68.80;;;;;;5057487;28;20102;-66
2022/04/14 05:54:14;;;;;;;18.10;7.53;;;10.00;68.60;;;;;;5060638;28;20032;-66
2022/04/14 05:56:40;;;;;;;20.02;7.60;;;10.10;69.00;;;;;;5059895;28;20506;-66
2022/04/14 05:59:06;;;;;;;21.35;8.27;;;10.10;69.20;;;;;;5058708;28;20071;-65
2022/04/14 06:01:32;;;;;;;19.08;7.25;;;10.20;69.30;;;;;;5057917;28;20071;-66
2022/04/14 06:03:57;;;;;;;16.23;6.85;;;10.30;69.20;;;;;;5057190;28;20091;-66
2022/04/14 06:06:23;;;;;;;16.63;6.72;;;10.40;69.00;;;;;;5059899;28;20029;-65
2022/04/14 06:08:49;;;;;;;13.23;6.90;;;10.50;68.90;;;;;;5058574;28;20288;-65
2022/04/14 06:11:14;;;;;;;18.80;7.28;;;10.60;69.00;;;;;;5059240;28;20540;-66
2022/04/14 06:13:40;;;;;;;15.15;6.20;;;10.60;69.10;;;;;;5059061;28;20500;-65
2022/04/14 06:16:06;;;;;;;17.15;7.00;;;10.80;69.10;;;;;;5057355;28;20574;-66
2022/04/14 06:18:32;;;;;;;11.75;6.15;;;10.80;69.10;;;;;;5061463;28;20041;-65
2022/04/14 06:20:57;;;;;;;11.27;6.47;;;10.90;69.00;;;;;;5058677;28;20524;-66
2022/04/14 06:23:23;;;;;;;9.15;5.88;;;11.10;69.00;;;;;;5057759;28;20036;-66
2022/04/14 06:25:49;;;;;;;11.32;6.30;;;11.20;68.90;;;;;;5057384;28;20029;-66
2022/04/14 06:28:18;;;;;;;12.27;6.43;;;11.30;68.70;;;;;;5059199;28;20025;-66
2022/04/14 06:30:46;;;;;;;16.90;6.50;;;11.40;68.70;;;;;;5057360;28;20226;-65
2022/04/14 06:33:12;;;;;;;9.77;5.97;;;11.50;68.70;;;;;;5059206;28;20116;-67
2022/04/14 06:35:37;;;;;;;8.25;5.50;;;11.60;68.70;;;;;;5060836;28;20120;-66
2022/04/14 06:38:03;;;;;;;10.60;5.70;;;11.70;68.80;;;;;;5060000;28;20404;-64
2022/04/14 06:40:29;;;;;;;9.80;5.72;;;11.90;68.80;;;;;;5057697;28;20087;-65
2022/04/14 06:42:54;;;;;;;10.20;6.05;;;12.00;68.70;;;;;;5057816;28;20029;-66
2022/04/14 06:45:20;;;;;;;11.40;5.78;;;12.10;68.70;;;;;;5055338;28;20235;-66
2022/04/14 06:47:46;;;;;;;10.75;5.88;;;12.20;68.50;;;;;;5058839;28;20229;-66
2022/04/14 06:50:11;;;;;;;8.93;6.10;;;12.40;68.50;;;;;;5059313;28;20041;-66
2022/04/14 06:52:38;;;;;;;9.57;6.05;;;12.50;68.50;;;;;;5058057;28;20040;-67
2022/04/14 06:55:04;;;;;;;9.27;5.78;;;12.60;68.50;;;;;;5063053;28;20106;-66
2022/04/14 06:57:30;;;;;;;10.68;6.03;;;12.80;68.50;;;;;;5057532;28;20504;-66
2022/04/14 06:59:56;;;;;;;8.63;5.38;;;12.90;68.40;;;;;;5056109;28;20071;-65
2022/04/14 07:02:22;;;;;;;10.57;5.90;;;13.00;68.70;;;;;;5057745;28;20037;-66
2022/04/14 07:04:48;;;;;;;9.60;5.88;;;13.20;69.70;;;;;;5058363;28;20040;-66
2022/04/14 07:07:14;;;;;;;9.15;5.88;;;13.30;68.60;;;;;;5058497;28;20041;-65
2022/04/14 07:09:39;;;;;;;10.88;5.78;;;13.40;68.40;;;;;;5058778;28;20034;-66
2022/04/14 07:12:06;;;;;;;11.10;5.68;;;13.60;68.30;;;;;;5057961;28;20041;-66
2022/04/14 07:14:32;;;;;;;8.75;5.28;;;13.70;68.10;;;;;;5057987;28;20037;-65
2022/04/14 07:16:58;;;;;;;13.00;6.30;;;13.90;67.90;;;;;;5058849;28;20028;-66
2022/04/14 07:19:25;;;;;;;12.20;6.15;;;14.00;67.60;;;;;;5056008;28;20035;-67
2022/04/14 07:21:50;;;;;;;10.80;5.78;;;14.10;67.80;;;;;;5059515;28;20533;-66
2022/04/14 07:24:17;;;;;;;13.25;5.55;;;14.30;67.40;;;;;;5059369;28;20037;-66
2022/04/14 07:26:43;;;;;;;8.57;5.07;;;14.40;67.20;;;;;;5057186;28;20070;-66
2022/04/14 07:29:08;;;;;;;10.68;5.38;;;14.50;66.70;;;;;;5057101;28;20548;-66
2022/04/14 07:31:36;;;;;;;10.30;5.68;;;14.70;66.50;;;;;;5056298;28;20166;-66
2022/04/14 07:34:02;;;;;;;12.98;4.70;;;14.80;66.60;;;;;;5058950;28;20089;-66
2022/04/14 07:36:28;;;;;;;8.43;5.40;;;14.90;66.40;;;;;;5057788;28;20505;-66
2022/04/14 07:38:54;;;;;;;7.85;5.22;;;15.10;66.20;;;;;;5059310;28;20075;-66
2022/04/14 07:41:19;;;;;;;8.18;5.65;;;15.20;65.90;;;;;;5058982;28;20024;-66
2022/04/14 07:43:45;;;;;;;11.35;6.03;;;15.30;65.70;;;;;;5057961;28;20171;-66
2022/04/14 07:46:11;;;;;;;10.48;6.05;;;15.40;65.00;;;;;;5057038;28;20086;-65
2022/04/14 07:48:36;;;;;;;8.68;5.93;;;15.50;64.50;;;;;;5056135;28;20067;-63
2022/04/14 07:51:03;;;;;;;10.32;6.38;;;15.60;64.30;;;;;;5056686;28;20036;-63
2022/04/14 07:53:32;;;;;;;7.88;5.75;;;15.70;64.10;;;;;;5055691;28;20067;-63
2022/04/14 07:55:58;;;;;;;10.93;6.15;;;15.80;63.50;;;;;;5058182;28;20040;-64
2022/04/14 07:58:23;;;;;;;8.57;5.72;;;15.80;63.40;;;;;;5054965;28;20040;-64
2022/04/14 08:00:52;;;;;;;12.82;5.60;;;15.90;63.60;;;;;;5057413;28;20036;-63
2022/04/14 08:03:18;;;;;;;11.02;5.85;;;15.90;63.30;;;;;;5054498;28;20075;-64
2022/04/14 08:05:46;;;;;;;10.13;6.35;;;16.00;63.00;;;;;;5057072;28;20029;-64
2022/04/14 08:08:14;;;;;;;11.45;5.68;;;16.10;62.70;;;;;;5058234;28;20598;-63
2022/04/14 08:10:41;;;;;;;11.70;6.10;;;16.20;62.60;;;;;;5055441;28;20033;-63
2022/04/14 08:13:06;;;;;;;8.98;5.85;;;16.20;62.10;;;;;;5056081;28;20029;-64
2022/04/14 08:15:33;;;;;;;11.23;6.05;;;16.30;62.00;;;;;;5056800;28;20036;-63
2022/04/14 08:18:00;;;;;;;8.15;5.60;;;16.40;61.90;;;;;;5056289;28;20082;-64
2022/04/14 08:20:27;;;;;;;12.13;6.40;;;16.40;61.90;;;;;;5056491;28;20034;-63
2022/04/14 08:22:57;;;;;;;7.75;5.85;;;16.50;61.70;;;;;;5055282;28;20025;-64
2022/04/14 08:25:28;;;;;;;9.18;6.10;;;16.50;61.50;;;;;;5056791;28;20045;-64
2022/04/14 08:27:55;;;;;;;9.77;5.93;;;16.60;61.20;;;;;;5057130;28;20025;-63
2022/04/14 08:30:22;;;;;;;10.15;5.80;;;16.70;61.30;;;;;;5057069;28;20120;-61
2022/04/14 08:32:49;;;;;;;12.10;6.32;;;16.70;61.20;;;;;;5057412;28;20044;-63
2022/04/14 08:35:17;;;;;;;11.35;6.20;;;16.80;60.80;;;;;;5054852;28;20623;-64
2022/04/14 08:37:43;;;;;;;10.02;5.90;;;16.90;60.50;;;;;;5058688;28;20066;-64
2022/04/14 08:40:11;;;;;;;10.05;6.15;;;16.90;60.10;;;;;;5058304;28;20055;-63
2022/04/14 08:42:43;;;;;;;11.15;6.38;;;17.00;59.90;;;;;;5055663;28;20029;-63
2022/04/14 08:45:13;;;;;;;9.15;6.00;;;17.10;60.00;;;;;;5057463;28;20037;-64
2022/04/14 08:47:40;;;;;;;10.88;6.85;;;17.20;59.70;;;;;;5056572;28;20521;-63
2022/04/14 08:50:08;;;;;;;10.00;6.47;;;17.30;59.30;;;;;;5055662;28;20036;-60
2022/04/14 08:52:34;;;;;;;12.23;6.13;;;17.40;59.10;;;;;;5057146;28;20037;-64
2022/04/14 08:55:04;;;;;;;9.65;6.18;;;17.40;58.90;;;;;;5057277;28;20033;-64
2022/04/14 08:57:30;;;;;;;9.98;5.57;;;17.50;58.50;;;;;;5057473;28;20039;-64
2022/04/14 08:59:58;;;;;;;9.10;5.95;;;17.60;58.70;;;;;;5057469;28;20391;-64
2022/04/14 09:02:26;;;;;;;11.20;6.30;;;17.70;58.90;;;;;;5056884;28;20133;-64
2022/04/14 09:04:52;;;;;;;8.93;6.05;;;17.70;58.60;;;;;;5055724;28;20115;-63
2022/04/14 09:07:18;;;;;;;8.95;6.00;;;17.90;58.60;;;;;;5055909;28;20515;-64
2022/04/14 09:09:44;;;;;;;10.82;6.55;;;17.90;58.00;;;;;;5056298;28;20033;-64
2022/04/14 09:12:11;;;;;;;14.68;8.65;;;18.00;57.90;;;;;;5056320;28;20047;-64
2022/04/14 09:14:37;;;;;;;12.95;6.60;;;18.10;58.00;;;;;;5054132;28;20032;-63
2022/04/14 09:17:07;;;;;;;12.48;6.05;;;18.20;57.90;;;;;;5060675;28;20355;-64
2022/04/14 09:19:36;;;;;;;11.15;5.88;;;18.20;57.30;;;;;;5056867;28;20040;-63
2022/04/14 09:22:08;;;;;;;7.85;6.03;;;18.30;57.50;;;;;;5058348;28;20117;-63
2022/04/14 09:24:45;;;;;;;9.95;6.53;;;18.40;57.30;;;;;;5071298;28;20048;-63
2022/04/14 09:27:29;;;;;;;9.07;6.10;;;18.50;57.40;;;;;;5058295;28;20032;-63
2022/04/14 09:29:57;;;;;;;12.35;6.60;;;18.60;56.90;;;;;;5058001;28;20032;-64
2022/04/14 09:32:37;;;;;;;10.15;6.18;;;18.60;56.60;;;;;;5056719;28;20029;-63
2022/04/14 09:35:04;;;;;;;12.45;7.65;;;18.70;56.40;;;;;;5058198;28;20029;-64
2022/04/14 09:37:30;;;;;;;11.32;7.03;;;18.80;56.30;;;;;;5055635;28;20029;-64
2022/04/14 09:40:02;;;;;;;10.32;7.22;;;18.90;56.00;;;;;;5056750;28;20545;-64
2022/04/14 09:42:33;;;;;;;9.98;6.82;;;19.00;55.60;;;;;;5072517;28;20453;-64
2022/04/14 09:45:22;;;;;;;11.75;7.20;;;19.10;56.00;;;;;;5061099;28;20047;-63
2022/04/14 09:47:48;;;;;;;10.10;6.82;;;19.20;55.00;;;;;;5059981;28;20048;-64
2022/04/14 09:50:24;;;;;;;9.63;6.78;;;19.30;56.20;;;;;;5061156;28;20032;-64
2022/04/14 09:53:19;;;;;;;12.75;6.90;;;19.30;55.20;;;;;;5060612;28;20119;-63
2022/04/14 09:55:50;;;;;;;9.68;6.47;;;19.40;54.90;;;;;;5057591;28;20502;-64
2022/04/14 09:58:21;;;;;;;9.20;6.45;;;19.50;55.60;;;;;;5059280;28;20043;-64
2022/04/14 10:00:57;;;;;;;10.80;6.75;;;19.60;55.40;;;;;;5059310;28;20037;-63
2022/04/14 10:03:31;;;;;;;9.88;6.70;;;19.70;55.10;;;;;;5059208;28;20032;-62
2022/04/14 10:06:05;;;;;;;9.13;6.38;;;19.80;55.00;;;;;;5059844;28;20052;-64
2022/04/14 10:09:03;;;;;;;9.13;6.25;;;19.90;54.40;;;;;;5059945;28;20119;-64
2022/04/14 10:11:33;;;;;;;10.57;6.30;;;20.00;54.00;;;;;;5051869;28;20036;-64
2022/04/14 10:14:15;;;;;;;9.25;6.10;;;20.10;54.10;;;;;;5058056;28;20033;-64
2022/04/14 10:16:41;;;;;;;11.82;7.20;;;20.20;53.70;;;;;;5057812;28;20067;-64
2022/04/14 10:19:08;;;;;;;9.25;6.72;;;20.30;53.20;;;;;;5058522;28;20101;-64
2022/04/14 10:21:35;;;;;;;11.02;6.60;;;20.40;53.40;;;;;;5061194;28;20041;-64
2022/04/14 10:24:01;;;;;;;10.02;6.78;;;20.40;53.00;;;;;;5059463;28;20031;-63
2022/04/14 10:26:28;;;;;;;9.48;5.82;;;20.50;52.90;;;;;;5061384;28;20032;-63
2022/04/14 10:28:55;;;;;;;10.85;6.18;;;20.50;52.80;;;;;;5058766;28;20046;-64
2022/04/14 10:31:21;;;;;;;7.38;5.60;;;20.50;52.60;;;;;;5060127;28;20517;-64
2022/04/14 10:33:48;;;;;;;9.32;5.97;;;20.60;52.70;;;;;;5058287;28;20043;-64
2022/04/14 10:36:14;;;;;;;9.43;4.97;;;20.60;51.60;;;;;;5058978;28;20040;-64
2022/04/14 10:38:43;;;;;;;10.43;5.47;;;20.70;51.80;;;;;;5057115;28;20029;-64
2022/04/14 10:41:15;;;;;;;10.95;5.70;;;20.70;50.70;;;;;;5059164;28;20029;-64
2022/04/14 10:43:43;;;;;;;7.70;5.18;;;20.70;50.20;;;;;;5058184;28;20033;-64
2022/04/14 10:46:14;;;;;;;8.13;4.95;;;20.80;50.20;;;;;;5060818;28;20107;-64
2022/04/14 10:48:41;;;;;;;9.63;5.75;;;20.80;50.00;;;;;;5058918;28;20098;-64
2022/04/14 10:51:27;;;;;;;9.98;5.93;;;20.80;49.70;;;;;;5057969;28;20505;-64
2022/04/14 10:54:06;;;;;;;7.40;4.25;;;20.80;48.90;;;;;;5056749;28;20474;-64
2022/04/14 10:56:34;;;;;;;7.22;4.35;;;20.80;47.70;;;;;;5056279;28;20029;-64
2022/04/14 10:59:11;;;;;;;5.85;3.60;;;20.90;47.80;;;;;;5058319;28;20040;-64
2022/04/14 11:01:50;;;;;;;6.18;4.05;;;20.90;47.90;;;;;;5064269;28;20032;-64
2022/04/14 11:04:41;;;;;;;5.22;2.85;;;21.00;47.50;;;;;;5058529;28;20036;-64
2022/04/14 11:07:09;;;;;;;9.77;4.00;;;21.00;46.60;;;;;;5058765;28;20021;-64
2022/04/14 11:09:50;;;;;;;8.07;4.85;;;21.10;47.60;;;;;;5073218;28;20032;-64
2022/04/14 11:12:50;;;;;;;9.13;4.95;;;21.20;47.50;;;;;;5059491;28;20408;-64
2022/04/14 11:15:30;;;;;;;7.78;4.65;;;21.30;47.50;;;;;;5057522;28;20030;-65
2022/04/14 11:18:03;;;;;;;10.35;4.70;;;21.40;47.10;;;;;;5058864;28;20366;-64
2022/04/14 11:20:35;;;;;;;7.55;4.43;;;21.40;46.80;;;;;;5057439;28;20040;-63
2022/04/14 11:23:15;;;;;;;6.15;4.00;;;21.50;46.40;;;;;;5058988;28;20029;-64
2022/04/14 11:25:41;;;;;;;;;;;;;;;;;;;;;
2022/04/14 11:28:15;;;;;;;6.40;4.35;;;21.70;46.80;;;;;;5058792;28;20021;-64
2022/04/14 11:30:41;;;;;;;8.63;4.90;;;21.80;46.00;;;;;;5057886;28;20322;-64
2022/04/14 11:33:14;;;;;;;7.72;4.47;;;21.90;46.90;;;;;;5057770;28;20144;-65
2022/04/14 11:35:47;;;;;;;8.32;4.72;;;21.90;46.40;;;;;;5057831;28;20401;-64
2022/04/14 11:38:51;;;;;;;10.65;4.22;;;22.00;46.10;;;;;;5058358;28;20032;-64
2022/04/14 11:41:44;;;;;;;10.15;4.05;;;22.10;45.50;;;;;;5059194;28;20425;-64
2022/04/14 11:44:30;;;;;;;6.30;3.40;;;22.10;45.70;;;;;;5058451;28;20049;-64
2022/04/14 11:46:58;;;;;;;5.85;4.00;;;22.20;45.00;;;;;;5058933;28;20039;-64
2022/04/14 11:49:26;;;;;;;6.13;4.35;;;22.20;45.90;;;;;;5055959;28;20032;-64
2022/04/14 11:51:52;;;;;;;7.50;4.18;;;22.30;45.30;;;;;;5055570;28;20059;-63
2022/04/14 11:54:26;;;;;;;9.23;4.82;;;22.30;45.20;;;;;;5058013;28;20406;-64
2022/04/14 11:56:54;;;;;;;9.25;4.90;;;22.40;44.10;;;;;;5061793;28;20032;-64
2022/04/14 11:59:32;;;;;;;6.30;3.95;;;22.40;44.40;;;;;;5057586;28;20032;-63
2022/04/14 12:02:06;;;;;;;7.45;4.03;;;22.50;44.30;;;;;;5057181;28;20128;-64
2022/04/14 12:04:39;;;;;;;8.73;4.05;;;22.50;45.00;;;;;;5056234;28;20036;-64
2022/04/14 12:07:06;;;;;;;8.27;4.80;;;22.50;45.30;;;;;;5056397;28;20353;-64
2022/04/14 12:09:31;;;;;;;5.90;4.18;;;22.60;45.50;;;;;;5059712;28;20035;-65
2022/04/14 12:11:57;;;;;;;6.03;4.32;;;22.70;45.40;;;;;;5057125;28;20032;-64
2022/04/14 12:14:23;;;;;;;7.00;4.55;;;22.70;45.10;;;;;;5057521;28;20509;-64
2022/04/14 12:16:53;;;;;;;9.13;3.97;;;22.80;45.00;;;;;;5039986;28;20155;-64
2022/04/14 12:19:22;;;;;;;9.38;5.45;;;22.80;44.80;;;;;;5038872;28;20029;-64
2022/04/14 12:22:02;;;;;;;9.82;5.57;;;22.90;43.90;;;;;;5027205;28;20564;-64
2022/04/14 12:24:28;;;;;;;7.15;5.10;;;22.90;43.70;;;;;;5037447;28;20022;-64
2022/04/14 12:26:54;;;;;;;8.02;4.82;;;22.90;44.70;;;;;;5038705;28;20057;-63
2022/04/14 12:29:21;;;;;;;9.20;5.05;;;22.90;44.80;;;;;;5038553;28;20116;-64
2022/04/14 12:31:46;;;;;;;9.70;5.20;;;23.00;44.40;;;;;;5037736;28;20459;-64
2022/04/14 12:34:13;;;;;;;7.32;4.88;;;23.00;44.40;;;;;;5038622;28;20116;-64
2022/04/14 12:36:38;;;;;;;8.65;6.05;;;23.00;45.00;;;;;;5057021;28;20033;-64
2022/04/14 12:39:20;;;;;;;9.05;5.65;;;23.00;44.60;;;;;;5058091;28;20038;-64
2022/04/14 12:41:47;;;;;;;8.98;5.70;;;23.00;43.80;;;;;;5058304;28;20131;-64
2022/04/14 12:44:18;;;;;;;9.43;5.65;;;23.10;44.70;;;;;;5057287;28;20054;-65
2022/04/14 12:46:50;;;;;;;7.18;5.07;;;23.10;44.60;;;;;;5058137;28;20028;-64
2022/04/14 12:49:22;;;;;;;7.53;5.65;;;23.20;44.70;;;;;;5057428;28;20428;-64